Time;durP1;ratioP1;P1;durP2;ratioP2;P2;SDS_P1;SDS_P2;PMS_P1;PMS_P2;Temp;Humidity;BMP_temperature;BMP_pressure;BME280_temperature;BME280_humidity;BME280_pressure;Samples;Min_cycle;Max_cycle;Signal;HPM_P1;HPM_P2
2022/11/15 00:00:14;;;;;;;0.00;0.00;;;;;;;;;;5071588;28;20039;-75
2022/11/15 00:02:40;;;;;;;0.00;0.00;;;;;;;;;;5070890;28;20125;-75
2022/11/15 00:05:06;;;;;;;0.00;0.00;;;;;;;;;;5072048;28;20494;-75
2022/11/15 00:07:33;;;;;;;0.00;0.00;;;;;;;;;;5070852;28;20040;-75
2022/11/15 00:09:59;;;;;;;0.00;0.00;;;;;;;;;;5070752;28;20028;-75
2022/11/15 00:12:25;;;;;;;0.00;0.00;;;;;;;;;;5071677;28;20090;-75
2022/11/15 00:14:52;;;;;;;0.00;0.00;;;;;;;;;;5091621;28;20054;-75
2022/11/15 00:17:18;;;;;;;0.00;0.00;;;;;;;;;;5092192;28;20422;-76
2022/11/15 00:19:44;;;;;;;0.00;0.00;;;;;;;;;;5074038;28;20055;-75
2022/11/15 00:22:11;;;;;;;0.00;0.00;;;;;;;;;;5092207;28;20039;-75
2022/11/15 00:24:37;;;;;;;0.00;0.00;;;;;;;;;;5092320;28;20386;-75
2022/11/15 00:27:03;;;;;;;0.00;0.00;;;;;;;;;;5092180;28;20089;-75
2022/11/15 00:29:30;;;;;;;0.00;0.00;;;;;;;;;;5074062;28;20028;-75
2022/11/15 00:31:56;;;;;;;0.00;0.00;;;;;;;;;;5091720;28;20059;-75
2022/11/15 00:34:22;;;;;;;0.00;0.00;;;;;;;;;;5073285;28;20088;-76
2022/11/15 00:36:48;;;;;;;0.00;0.00;;;;;;;;;;5073231;28;20036;-75
2022/11/15 00:39:15;;;;;;;0.00;0.00;;;;;;;;;;5073911;28;20024;-76
2022/11/15 00:41:41;;;;;;;0.00;0.00;;;;;;;;;;5094387;28;20039;-76
2022/11/15 00:44:07;;;;;;;0.00;0.00;;;;;;;;;;5077367;28;20032;-75
2022/11/15 00:46:34;;;;;;;0.00;0.00;;;;;;;;;;5077367;28;20042;-75
2022/11/15 00:49:00;;;;;;;0.00;0.00;;;;;;;;;;5077263;28;20024;-76
2022/11/15 00:51:26;;;;;;;0.00;0.00;;;;;;;;;;5095590;28;20028;-75
2022/11/15 00:53:53;;;;;;;0.00;0.00;;;;;;;;;;5076936;28;20028;-75
2022/11/15 00:56:19;;;;;;;0.00;0.00;;;;;;;;;;5095316;28;20043;-76
2022/11/15 00:58:45;;;;;;;0.00;0.00;;;;;;;;;;5094459;28;20028;-76
2022/11/15 01:01:13;;;;;;;0.00;0.00;;;;;;;;;;5092757;28;20035;-75
2022/11/15 01:03:40;;;;;;;0.00;0.00;;;;;;;;;;5077293;28;20110;-75
2022/11/15 01:06:07;;;;;;;0.00;0.00;;;;;;;;;;5076626;28;20458;-76
2022/11/15 01:08:33;;;;;;;0.00;0.00;;;;;;;;;;5077405;28;20028;-76
2022/11/15 01:11:04;;;;;;;0.00;0.00;;;;;;;;;;5095445;28;20059;-75
2022/11/15 01:13:34;;;;;;;0.00;0.00;;;;;;;;;;5095182;28;20093;-76
2022/11/15 01:16:06;;;;;;;0.00;0.00;;;;;;;;;;5076898;28;20032;-75
2022/11/15 01:18:33;;;;;;;0.00;0.00;;;;;;;;;;5094977;28;20475;-75
2022/11/15 01:20:59;;;;;;;0.00;0.00;;;;;;;;;;5076781;28;20157;-75
2022/11/15 01:23:25;;;;;;;0.00;0.00;;;;;;;;;;5094302;28;20039;-76
2022/11/15 01:25:52;;;;;;;0.00;0.00;;;;;;;;;;5075440;28;20055;-76
2022/11/15 01:28:18;;;;;;;0.00;0.00;;;;;;;;;;5094326;28;20105;-76
2022/11/15 01:30:44;;;;;;;0.00;0.00;;;;;;;;;;5072921;28;20029;-76
2022/11/15 01:33:11;;;;;;;0.00;0.00;;;;;;;;;;5074428;28;20033;-76
2022/11/15 01:35:39;;;;;;;0.00;0.00;;;;;;;;;;5091402;28;20035;-76
2022/11/15 01:38:06;;;;;;;0.00;0.00;;;;;;;;;;5094183;28;20031;-76
2022/11/15 01:40:32;;;;;;;0.00;0.00;;;;;;;;;;5094373;28;20537;-76
2022/11/15 01:42:58;;;;;;;0.00;0.00;;;;;;;;;;5076355;28;20119;-76
2022/11/15 01:45:25;;;;;;;0.00;0.00;;;;;;;;;;5094302;28;20039;-76
2022/11/15 01:47:53;;;;;;;0.00;0.00;;;;;;;;;;5076255;28;20502;-76
2022/11/15 01:50:22;;;;;;;0.00;0.00;;;;;;;;;;5076075;28;20020;-75
2022/11/15 01:52:48;;;;;;;0.00;0.00;;;;;;;;;;5093874;28;20041;-75
2022/11/15 01:55:26;;;;;;;0.00;0.00;;;;;;;;;;5094251;28;20048;-76
2022/11/15 01:57:54;;;;;;;0.00;0.00;;;;;;;;;;5093928;28;20044;-75
2022/11/15 02:00:20;;;;;;;0.00;0.00;;;;;;;;;;5094335;28;20498;-75
2022/11/15 02:02:47;;;;;;;0.00;0.00;;;;;;;;;;5093683;28;20028;-76
2022/11/15 02:05:13;;;;;;;0.00;0.00;;;;;;;;;;5091685;28;20507;-76
2022/11/15 02:07:40;;;;;;;0.00;0.00;;;;;;;;;;5075738;28;20020;-76
2022/11/15 02:10:14;;;;;;;0.00;0.00;;;;;;;;;;5072211;28;20077;-76
2022/11/15 02:12:40;;;;;;;0.00;0.00;;;;;;;;;;5091696;28;20024;-75
2022/11/15 02:15:07;;;;;;;0.00;0.00;;;;;;;;;;5073703;28;20439;-76
2022/11/15 02:17:44;;;;;;;0.00;0.00;;;;;;;;;;5090729;28;20419;-75
2022/11/15 02:20:24;;;;;;;0.00;0.00;;;;;;;;;;5075745;28;20032;-76
2022/11/15 02:22:59;;;;;;;0.00;0.00;;;;;;;;;;5092809;28;20100;-76
2022/11/15 02:25:47;;;;;;;0.00;0.00;;;;;;;;;;5072756;28;20085;-76
2022/11/15 02:28:32;;;;;;;0.00;0.00;;;;;;;;;;5080606;28;20395;-74
2022/11/15 02:31:17;;;;;;;0.00;0.00;;;;;;;;;;5091393;28;20027;-74
2022/11/15 02:33:43;;;;;;;0.00;0.00;;;;;;;;;;5073779;28;20024;-74
2022/11/15 02:36:19;;;;;;;0.00;0.00;;;;;;;;;;5089470;28;20039;-76
2022/11/15 02:38:57;;;;;;;0.00;0.00;;;;;;;;;;5070234;28;20031;-77
2022/11/15 02:41:26;;;;;;;0.00;0.00;;;;;;;;;;5084360;28;20043;-76
2022/11/15 02:44:08;;;;;;;0.00;0.00;;;;;;;;;;5084881;28;20031;-76
2022/11/15 02:49:23;;;;;;;0.00;0.00;;;;;;;;;;5087534;28;20035;-76
2022/11/15 02:51:50;;;;;;;0.00;0.00;;;;;;;;;;5087100;28;20050;-75
2022/11/15 02:54:22;;;;;;;0.00;0.00;;;;;;;;;;5057272;28;20027;-76
2022/11/15 02:56:49;;;;;;;0.00;0.00;;;;;;;;;;5085940;28;20028;-78
2022/11/15 02:59:30;;;;;;;0.00;0.00;;;;;;;;;;5083524;28;20068;-77
2022/11/15 03:02:02;;;;;;;0.00;0.00;;;;;;;;;;5051575;28;20170;-76
2022/11/15 03:04:32;;;;;;;0.00;0.00;;;;;;;;;;5064239;28;20185;-74
2022/11/15 03:07:01;;;;;;;0.00;0.00;;;;;;;;;;5081223;28;20036;-76
2022/11/15 03:09:46;;;;;;;0.00;0.00;;;;;;;;;;5067260;28;20558;-77
2022/11/15 03:12:16;;;;;;;0.00;0.00;;;;;;;;;;5086030;28;20603;-77
2022/11/15 03:14:55;;;;;;;0.00;0.00;;;;;;;;;;5079513;28;20044;-76
2022/11/15 03:17:26;;;;;;;0.00;0.00;;;;;;;;;;5064530;28;20032;-79
2022/11/15 03:20:00;;;;;;;0.00;0.00;;;;;;;;;;5067023;28;20024;-76
2022/11/15 03:22:28;;;;;;;0.00;0.00;;;;;;;;;;5082448;28;20495;-75
2022/11/15 03:24:55;;;;;;;0.00;0.00;;;;;;;;;;5089637;28;20028;-76
2022/11/15 03:27:23;;;;;;;0.00;0.00;;;;;;;;;;5086251;28;20028;-77
2022/11/15 03:29:58;;;;;;;0.00;0.00;;;;;;;;;;5068061;28;20028;-76
2022/11/15 03:32:26;;;;;;;0.00;0.00;;;;;;;;;;5089972;28;20376;-77
2022/11/15 03:34:56;;;;;;;0.00;0.00;;;;;;;;;;5090621;28;20063;-76
2022/11/15 03:37:31;;;;;;;0.00;0.00;;;;;;;;;;5069206;28;20593;-77
2022/11/15 03:39:57;;;;;;;0.00;0.00;;;;;;;;;;5091025;28;20467;-75
2022/11/15 03:42:26;;;;;;;0.00;0.00;;;;;;;;;;5091388;28;20028;-75
2022/11/15 03:45:02;;;;;;;0.00;0.00;;;;;;;;;;5073053;28;20116;-75
2022/11/15 03:47:32;;;;;;;0.00;0.00;;;;;;;;;;5068557;28;20028;-76
2022/11/15 03:50:00;;;;;;;0.00;0.00;;;;;;;;;;5071561;28;20025;-75
2022/11/15 03:52:31;;;;;;;0.00;0.00;;;;;;;;;;5086848;28;20028;-75
2022/11/15 03:54:57;;;;;;;0.00;0.00;;;;;;;;;;5088075;28;20380;-76
2022/11/15 03:57:24;;;;;;;0.00;0.00;;;;;;;;;;5071392;28;20429;-78
2022/11/15 03:59:50;;;;;;;0.00;0.00;;;;;;;;;;5069983;28;20043;-78
2022/11/15 04:02:16;;;;;;;0.00;0.00;;;;;;;;;;5087270;28;20036;-78
2022/11/15 04:04:43;;;;;;;0.00;0.00;;;;;;;;;;5074284;28;20031;-78
2022/11/15 04:07:09;;;;;;;0.00;0.00;;;;;;;;;;5070057;28;20032;-78
2022/11/15 04:10:01;;;;;;;0.00;0.00;;;;;;;;;;5065750;28;20024;-76
2022/11/15 04:12:31;;;;;;;0.00;0.00;;;;;;;;;;5086729;28;20032;-76
2022/11/15 04:15:07;;;;;;;0.00;0.00;;;;;;;;;;5040661;28;20417;-76
2022/11/15 04:17:40;;;;;;;0.00;0.00;;;;;;;;;;5043969;28;20447;-76
2022/11/15 04:25:38;;;;;;;0.00;0.00;;;;;;;;;;5045370;28;20060;-77
2022/11/15 04:28:05;;;;;;;0.00;0.00;;;;;;;;;;5049922;28;20025;-78
2022/11/15 04:30:31;;;;;;;0.00;0.00;;;;;;;;;;5048774;28;20021;-78
2022/11/15 04:32:57;;;;;;;0.00;0.00;;;;;;;;;;5050735;28;20048;-76
2022/11/15 04:35:24;;;;;;;0.00;0.00;;;;;;;;;;5048773;28;20082;-77
2022/11/15 04:37:50;;;;;;;0.00;0.00;;;;;;;;;;5049043;28;20033;-78
2022/11/15 04:40:16;;;;;;;0.00;0.00;;;;;;;;;;5046749;28;20485;-76
2022/11/15 04:42:43;;;;;;;0.00;0.00;;;;;;;;;;5050045;28;20037;-77
2022/11/15 04:45:10;;;;;;;0.00;0.00;;;;;;;;;;5049013;28;20060;-78
2022/11/15 04:47:36;;;;;;;0.00;0.00;;;;;;;;;;5049588;28;20025;-80
2022/11/15 04:50:03;;;;;;;0.00;0.00;;;;;;;;;;5051059;28;20052;-77
2022/11/15 04:52:29;;;;;;;0.00;0.00;;;;;;;;;;5045369;28;20419;-77
2022/11/15 04:54:55;;;;;;;0.00;0.00;;;;;;;;;;5049800;28;20111;-78
2022/11/15 04:57:22;;;;;;;0.00;0.00;;;;;;;;;;5042896;28;20029;-82
2022/11/15 04:59:48;;;;;;;0.00;0.00;;;;;;;;;;5043216;28;20029;-82
2022/11/15 05:02:14;;;;;;;0.00;0.00;;;;;;;;;;5049034;28;20059;-80
2022/11/15 05:04:41;;;;;;;0.00;0.00;;;;;;;;;;5044200;28;20734;-82
2022/11/15 05:07:07;;;;;;;0.00;0.00;;;;;;;;;;5045189;28;20030;-82
2022/11/15 05:09:33;;;;;;;0.00;0.00;;;;;;;;;;5049017;28;20028;-80
2022/11/15 05:12:00;;;;;;;0.00;0.00;;;;;;;;;;5046061;28;20159;-79
2022/11/15 05:14:26;;;;;;;0.00;0.00;;;;;;;;;;5063257;28;20048;-82
2022/11/15 05:16:52;;;;;;;0.00;0.00;;;;;;;;;;5069411;28;20031;-79
2022/11/15 05:19:19;;;;;;;0.00;0.00;;;;;;;;;;5065767;28;20039;-77
2022/11/15 05:21:45;;;;;;;0.00;0.00;;;;;;;;;;5065676;28;20073;-81
2022/11/15 05:24:11;;;;;;;0.00;0.00;;;;;;;;;;5064840;28;20111;-81
2022/11/15 05:26:38;;;;;;;0.00;0.00;;;;;;;;;;5067370;28;20048;-80
2022/11/15 05:29:04;;;;;;;0.00;0.00;;;;;;;;;;5068103;28;20105;-79
2022/11/15 05:31:30;;;;;;;0.00;0.00;;;;;;;;;;5068436;28;20036;-81
2022/11/15 05:33:57;;;;;;;0.00;0.00;;;;;;;;;;5069608;28;20020;-79
2022/11/15 05:36:23;;;;;;;0.00;0.00;;;;;;;;;;5067290;28;20039;-80
2022/11/15 05:38:50;;;;;;;0.00;0.00;;;;;;;;;;5064124;28;20066;-79
2022/11/15 05:41:18;;;;;;;0.00;0.00;;;;;;;;;;5067013;28;21660;-81
2022/11/15 05:43:45;;;;;;;0.00;0.00;;;;;;;;;;5064473;28;20302;-78
2022/11/15 05:46:11;;;;;;;0.00;0.00;;;;;;;;;;5060527;28;20024;-79
2022/11/15 05:48:38;;;;;;;0.00;0.00;;;;;;;;;;5061615;28;20039;-77
2022/11/15 05:51:05;;;;;;;0.00;0.00;;;;;;;;;;5062851;28;20024;-81
2022/11/15 05:53:32;;;;;;;0.00;0.00;;;;;;;;;;5061796;28;20039;-79
2022/11/15 05:55:58;;;;;;;0.00;0.00;;;;;;;;;;5062802;28;20096;-79
2022/11/15 05:58:24;;;;;;;0.00;0.00;;;;;;;;;;5059204;28;20025;-78
2022/11/15 06:00:51;;;;;;;0.00;0.00;;;;;;;;;;5059926;28;20116;-78
2022/11/15 06:03:17;;;;;;;0.00;0.00;;;;;;;;;;5060839;28;20564;-78
2022/11/15 06:05:43;;;;;;;0.00;0.00;;;;;;;;;;5062114;28;20037;-79
2022/11/15 06:08:10;;;;;;;0.00;0.00;;;;;;;;;;5064503;28;21249;-80
2022/11/15 06:10:36;;;;;;;0.00;0.00;;;;;;;;;;5059814;28;20107;-77
2022/11/15 06:13:03;;;;;;;0.00;0.00;;;;;;;;;;5070351;28;20039;-78
2022/11/15 06:15:30;;;;;;;0.00;0.00;;;;;;;;;;5082011;28;20081;-78
2022/11/15 06:17:59;;;;;;;0.00;0.00;;;;;;;;;;5067092;28;20024;-79
2022/11/15 06:20:26;;;;;;;0.00;0.00;;;;;;;;;;5063862;28;20035;-76
2022/11/15 06:22:57;;;;;;;0.00;0.00;;;;;;;;;;5086263;28;20066;-78
2022/11/15 06:25:23;;;;;;;0.00;0.00;;;;;;;;;;5089929;28;20032;-76
2022/11/15 06:27:56;;;;;;;0.00;0.00;;;;;;;;;;5087249;28;20039;-77
2022/11/15 06:30:23;;;;;;;0.00;0.00;;;;;;;;;;5084634;28;20028;-78
2022/11/15 06:32:49;;;;;;;0.00;0.00;;;;;;;;;;5087013;28;20024;-77
2022/11/15 06:35:16;;;;;;;0.00;0.00;;;;;;;;;;5087025;28;20081;-79
2022/11/15 06:37:43;;;;;;;0.00;0.00;;;;;;;;;;5070690;28;20032;-77
2022/11/15 06:40:10;;;;;;;0.00;0.00;;;;;;;;;;5071624;28;20031;-78
2022/11/15 06:42:36;;;;;;;0.00;0.00;;;;;;;;;;5091675;28;20020;-77
2022/11/15 06:45:03;;;;;;;0.00;0.00;;;;;;;;;;5084665;28;20096;-78
2022/11/15 06:47:29;;;;;;;0.00;0.00;;;;;;;;;;5088739;28;20043;-78
2022/11/15 06:49:56;;;;;;;0.00;0.00;;;;;;;;;;5080245;28;20024;-78
2022/11/15 06:52:22;;;;;;;0.00;0.00;;;;;;;;;;5071087;28;20043;-77
2022/11/15 06:54:48;;;;;;;0.00;0.00;;;;;;;;;;5068332;28;20085;-78
2022/11/15 06:57:15;;;;;;;0.00;0.00;;;;;;;;;;5068702;28;20028;-79
2022/11/15 06:59:41;;;;;;;0.00;0.00;;;;;;;;;;5082990;28;20020;-81
2022/11/15 07:02:12;;;;;;;0.00;0.00;;;;;;;;;;5082968;28;20020;-78
2022/11/15 07:04:38;;;;;;;0.00;0.00;;;;;;;;;;5066375;28;20035;-80
2022/11/15 07:07:05;;;;;;;0.00;0.00;;;;;;;;;;5068667;28;20031;-78
2022/11/15 07:09:31;;;;;;;0.00;0.00;;;;;;;;;;5069164;28;20039;-77
2022/11/15 07:11:57;;;;;;;0.00;0.00;;;;;;;;;;5088989;28;20032;-80
2022/11/15 07:14:24;;;;;;;0.00;0.00;;;;;;;;;;5067681;28;20051;-80
2022/11/15 07:16:51;;;;;;;0.00;0.00;;;;;;;;;;5067648;28;20052;-78
2022/11/15 07:19:18;;;;;;;0.00;0.00;;;;;;;;;;5086293;28;20060;-75
2022/11/15 07:21:44;;;;;;;0.00;0.00;;;;;;;;;;5069355;28;20159;-73
2022/11/15 07:24:10;;;;;;;0.00;0.00;;;;;;;;;;5088334;28;20025;-74
2022/11/15 07:26:37;;;;;;;0.00;0.00;;;;;;;;;;5085020;28;20066;-77
2022/11/15 07:29:03;;;;;;;0.00;0.00;;;;;;;;;;5065094;28;20521;-76
2022/11/15 07:31:29;;;;;;;0.00;0.00;;;;;;;;;;5082555;28;20053;-79
2022/11/15 07:33:56;;;;;;;0.00;0.00;;;;;;;;;;5063858;28;20028;-77
2022/11/15 07:36:22;;;;;;;0.00;0.00;;;;;;;;;;5080125;28;20024;-77
2022/11/15 07:38:48;;;;;;;0.00;0.00;;;;;;;;;;5068341;28;20067;-75
2022/11/15 07:41:15;;;;;;;0.00;0.00;;;;;;;;;;5080826;28;20068;-74
2022/11/15 07:43:41;;;;;;;0.00;0.00;;;;;;;;;;5071159;28;20118;-77
2022/11/15 07:46:09;;;;;;;0.00;0.00;;;;;;;;;;5069684;28;20028;-77
2022/11/15 07:48:36;;;;;;;0.00;0.00;;;;;;;;;;5089102;28;20031;-76
2022/11/15 07:51:02;;;;;;;0.00;0.00;;;;;;;;;;5092278;28;20356;-76
2022/11/15 07:53:29;;;;;;;0.00;0.00;;;;;;;;;;5075122;28;20020;-74
2022/11/15 07:55:55;;;;;;;0.00;0.00;;;;;;;;;;5073202;28;20085;-75
2022/11/15 07:58:21;;;;;;;0.00;0.00;;;;;;;;;;5088685;28;20528;-73
2022/11/15 08:00:48;;;;;;;0.00;0.00;;;;;;;;;;5092280;28;20028;-77
2022/11/15 08:03:16;;;;;;;0.00;0.00;;;;;;;;;;5085773;28;20046;-77
2022/11/15 08:05:43;;;;;;;0.00;0.00;;;;;;;;;;5070148;28;20028;-78
2022/11/15 08:08:11;;;;;;;0.00;0.00;;;;;;;;;;5086522;28;20074;-75
2022/11/15 08:10:37;;;;;;;0.00;0.00;;;;;;;;;;5067887;28;20023;-75
2022/11/15 08:13:05;;;;;;;0.00;0.00;;;;;;;;;;5070215;28;20038;-76
2022/11/15 08:15:32;;;;;;;0.00;0.00;;;;;;;;;;5073497;28;20024;-78
2022/11/15 08:17:59;;;;;;;0.00;0.00;;;;;;;;;;5087206;28;20043;-76
2022/11/15 08:20:29;;;;;;;0.00;0.00;;;;;;;;;;5089355;28;20028;-77
2022/11/15 08:22:56;;;;;;;0.00;0.00;;;;;;;;;;5087895;28;20032;-76
2022/11/15 08:25:26;;;;;;;0.00;0.00;;;;;;;;;;5070701;28;20438;-76
2022/11/15 08:27:56;;;;;;;0.00;0.00;;;;;;;;;;5088727;28;20036;-76
2022/11/15 08:30:22;;;;;;;0.00;0.00;;;;;;;;;;5067734;28;20061;-77
2022/11/15 08:32:50;;;;;;;0.00;0.00;;;;;;;;;;5086365;28;20020;-76
2022/11/15 08:35:16;;;;;;;0.00;0.00;;;;;;;;;;5088893;28;20032;-77
2022/11/15 08:37:42;;;;;;;0.00;0.00;;;;;;;;;;5087405;28;20029;-76
2022/11/15 08:40:09;;;;;;;0.00;0.00;;;;;;;;;;5089982;28;20091;-74
2022/11/15 08:42:35;;;;;;;0.00;0.00;;;;;;;;;;5089988;28;20035;-77
2022/11/15 08:45:02;;;;;;;0.00;0.00;;;;;;;;;;5048711;22;20050;-74
2022/11/15 08:47:28;;;;;;;0.00;0.00;;;;;;;;;;5017317;28;20025;-74
2022/11/15 08:49:55;;;;;;;0.00;0.00;;;;;;;;;;5018657;28;20112;-74
2022/11/15 08:52:21;;;;;;;0.00;0.00;;;;;;;;;;5022532;28;20022;-74
2022/11/15 08:54:47;;;;;;;0.00;0.00;;;;;;;;;;5022261;28;20034;-73
2022/11/15 08:57:14;;;;;;;0.00;0.00;;;;;;;;;;5018972;28;20038;-73
2022/11/15 08:59:40;;;;;;;0.00;0.00;;;;;;;;;;5016315;28;20549;-74
2022/11/15 09:02:07;;;;;;;0.00;0.00;;;;;;;;;;5014936;28;20041;-75
2022/11/15 09:04:33;;;;;;;0.00;0.00;;;;;;;;;;5023783;28;20357;-77
2022/11/15 09:07:00;;;;;;;0.00;0.00;;;;;;;;;;5018311;28;20499;-74
2022/11/15 09:09:26;;;;;;;0.00;0.00;;;;;;;;;;5015783;28;20038;-75
2022/11/15 09:11:52;;;;;;;0.00;0.00;;;;;;;;;;5022773;28;20030;-77
2022/11/15 09:14:18;;;;;;;0.00;0.00;;;;;;;;;;5015931;28;20025;-73
2022/11/15 09:16:45;;;;;;;0.00;0.00;;;;;;;;;;5011759;28;20506;-75
2022/11/15 09:19:11;;;;;;;0.00;0.00;;;;;;;;;;5014478;28;20034;-79
2022/11/15 09:21:37;;;;;;;0.00;0.00;;;;;;;;;;5019154;28;20084;-73
2022/11/15 09:24:04;;;;;;;0.00;0.00;;;;;;;;;;5019354;28;20460;-76
2022/11/15 09:26:30;;;;;;;0.00;0.00;;;;;;;;;;5021839;28;20033;-76
2022/11/15 09:28:56;;;;;;;0.00;0.00;;;;;;;;;;5014518;28;20512;-76
2022/11/15 09:31:23;;;;;;;0.00;0.00;;;;;;;;;;5017381;28;20102;-74
2022/11/15 09:33:49;;;;;;;0.00;0.00;;;;;;;;;;5019632;28;20369;-76
2022/11/15 09:36:16;;;;;;;0.00;0.00;;;;;;;;;;5014133;28;20033;-75
2022/11/15 09:38:42;;;;;;;0.00;0.00;;;;;;;;;;5018490;28;20033;-74
2022/11/15 09:41:12;;;;;;;0.00;0.00;;;;;;;;;;5022150;28;20038;-75
2022/11/15 09:43:58;;;;;;;0.00;0.00;;;;;;;;;;5015969;28;20030;-74
2022/11/15 09:46:41;;;;;;;0.00;0.00;;;;;;;;;;5010407;28;20485;-75
2022/11/15 09:49:09;;;;;;;0.00;0.00;;;;;;;;;;5015164;28;20685;-74
2022/11/15 09:51:47;;;;;;;0.00;0.00;;;;;;;;;;5014906;28;20068;-77
2022/11/15 09:54:31;;;;;;;0.00;0.00;;;;;;;;;;5017525;28;20446;-74
2022/11/15 09:57:04;;;;;;;0.00;0.00;;;;;;;;;;5017651;28;20120;-75
2022/11/15 09:59:49;;;;;;;0.00;0.00;;;;;;;;;;5020167;28;20100;-75
2022/11/15 10:02:24;;;;;;;0.00;0.00;;;;;;;;;;5018204;28;20113;-74
2022/11/15 10:04:51;;;;;;;0.00;0.00;;;;;;;;;;5013515;28;20025;-74
2022/11/15 10:07:27;;;;;;;0.00;0.00;;;;;;;;;;5016586;28;20029;-75
2022/11/15 10:09:56;;;;;;;0.00;0.00;;;;;;;;;;5020644;28;20047;-73
2022/11/15 10:12:23;;;;;;;0.00;0.00;;;;;;;;;;5022131;28;20075;-75
2022/11/15 10:14:52;;;;;;;0.00;0.00;;;;;;;;;;5022917;28;20034;-74
2022/11/15 10:17:34;;;;;;;0.00;0.00;;;;;;;;;;5020267;28;20061;-74
2022/11/15 10:20:20;;;;;;;0.00;0.00;;;;;;;;;;5018687;28;20049;-73
2022/11/15 10:22:48;;;;;;;0.00;0.00;;;;;;;;;;5022122;28;20040;-75
2022/11/15 10:25:20;;;;;;;0.00;0.00;;;;;;;;;;5019013;28;20376;-75
2022/11/15 10:27:53;;;;;;;0.00;0.00;;;;;;;;;;5020708;28;20033;-75
2022/11/15 10:30:20;;;;;;;0.00;0.00;;;;;;;;;;5021500;28;21230;-74
2022/11/15 10:32:49;;;;;;;0.00;0.00;;;;;;;;;;5021919;28;20071;-75
2022/11/15 10:35:33;;;;;;;0.00;0.00;;;;;;;;;;5024322;28;20087;-75
2022/11/15 10:38:10;;;;;;;0.00;0.00;;;;;;;;;;5021170;28;20029;-74
2022/11/15 10:40:37;;;;;;;0.00;0.00;;;;;;;;;;5023052;28;20182;-75
2022/11/15 10:43:09;;;;;;;0.00;0.00;;;;;;;;;;5023690;28;20482;-75
2022/11/15 10:45:36;;;;;;;0.00;0.00;;;;;;;;;;5035595;28;20060;-74
2022/11/15 10:48:15;;;;;;;0.00;0.00;;;;;;;;;;5039412;28;20048;-74
2022/11/15 10:50:42;;;;;;;0.00;0.00;;;;;;;;;;5039850;28;20033;-76
2022/11/15 10:53:17;;;;;;;0.00;0.00;;;;;;;;;;5036330;28;20029;-75
2022/11/15 10:55:47;;;;;;;0.00;0.00;;;;;;;;;;5037598;28;20152;-75
2022/11/15 10:58:31;;;;;;;0.00;0.00;;;;;;;;;;5036634;28;20411;-75
2022/11/15 11:01:08;;;;;;;0.00;0.00;;;;;;;;;;5037015;28;20044;-77
2022/11/15 11:03:37;;;;;;;0.00;0.00;;;;;;;;;;5036717;28;20044;-74
2022/11/15 11:06:05;;;;;;;0.00;0.00;;;;;;;;;;5042209;28;20364;-73
2022/11/15 11:08:32;;;;;;;0.00;0.00;;;;;;;;;;5036899;28;20040;-74
2022/11/15 11:11:03;;;;;;;0.00;0.00;;;;;;;;;;5041418;28;20101;-74
2022/11/15 11:13:37;;;;;;;0.00;0.00;;;;;;;;;;5039927;28;20482;-73
2022/11/15 11:16:06;;;;;;;0.00;0.00;;;;;;;;;;5037562;28;20048;-73
2022/11/15 11:18:35;;;;;;;0.00;0.00;;;;;;;;;;5045792;28;20479;-73
2022/11/15 11:21:09;;;;;;;0.00;0.00;;;;;;;;;;5043449;28;20036;-74
2022/11/15 11:23:48;;;;;;;0.00;0.00;;;;;;;;;;5036886;28;20033;-74
2022/11/15 11:26:33;;;;;;;0.00;0.00;;;;;;;;;;5040628;28;20124;-73
2022/11/15 11:29:17;;;;;;;0.00;0.00;;;;;;;;;;5043187;28;20076;-73
2022/11/15 11:32:04;;;;;;;0.00;0.00;;;;;;;;;;5040785;28;20026;-74
2022/11/15 11:34:56;;;;;;;0.00;0.00;;;;;;;;;;5036735;28;20047;-74
2022/11/15 11:37:42;;;;;;;0.00;0.00;;;;;;;;;;5028673;28;20041;-74
2022/11/15 11:40:27;;;;;;;0.00;0.00;;;;;;;;;;5044276;28;20071;-74
2022/11/15 11:43:06;;;;;;;0.00;0.00;;;;;;;;;;5038692;28;20030;-73
2022/11/15 11:45:44;;;;;;;0.00;0.00;;;;;;;;;;5035152;28;20049;-74
2022/11/15 11:48:14;;;;;;;0.00;0.00;;;;;;;;;;5032653;28;20061;-73
2022/11/15 11:50:42;;;;;;;0.00;0.00;;;;;;;;;;5042400;28;20032;-73
2022/11/15 11:53:18;;;;;;;0.00;0.00;;;;;;;;;;5044567;28;20037;-74
2022/11/15 11:55:48;;;;;;;0.00;0.00;;;;;;;;;;5039372;28;20041;-74
2022/11/15 11:58:20;;;;;;;0.00;0.00;;;;;;;;;;5039948;28;20041;-74
2022/11/15 12:00:49;;;;;;;0.00;0.00;;;;;;;;;;5043975;28;20124;-75
2022/11/15 12:03:26;;;;;;;0.00;0.00;;;;;;;;;;5031869;28;20067;-74
2022/11/15 12:05:55;;;;;;;0.00;0.00;;;;;;;;;;5034174;28;20025;-77
2022/11/15 12:08:33;;;;;;;0.00;0.00;;;;;;;;;;5036165;28;20111;-76
2022/11/15 12:11:09;;;;;;;0.00;0.00;;;;;;;;;;5023454;28;20396;-78
2022/11/15 12:13:36;;;;;;;0.00;0.00;;;;;;;;;;5037961;28;20562;-77
2022/11/15 12:16:06;;;;;;;0.00;0.00;;;;;;;;;;5040786;28;20070;-73
2022/11/15 12:18:33;;;;;;;0.00;0.00;;;;;;;;;;5038751;28;20041;-77
2022/11/15 12:21:10;;;;;;;0.00;0.00;;;;;;;;;;5042728;28;20029;-75
2022/11/15 12:23:42;;;;;;;0.00;0.00;;;;;;;;;;5041749;28;20029;-77
2022/11/15 12:26:30;;;;;;;0.00;0.00;;;;;;;;;;5046543;28;20029;-75
2022/11/15 12:29:02;;;;;;;0.00;0.00;;;;;;;;;;5045833;28;20108;-73
2022/11/15 12:31:38;;;;;;;0.00;0.00;;;;;;;;;;5047326;28;20472;-74
2022/11/15 12:34:14;;;;;;;0.00;0.00;;;;;;;;;;5050209;28;20025;-75
2022/11/15 12:36:42;;;;;;;0.00;0.00;;;;;;;;;;5042865;28;20051;-74
2022/11/15 12:39:09;;;;;;;0.00;0.00;;;;;;;;;;5043588;28;20033;-76
2022/11/15 12:41:40;;;;;;;0.00;0.00;;;;;;;;;;5046939;28;20363;-74
2022/11/15 12:44:11;;;;;;;0.00;0.00;;;;;;;;;;5048382;28;20383;-74
2022/11/15 12:46:41;;;;;;;0.00;0.00;;;;;;;;;;5047982;28;20422;-75
2022/11/15 12:49:11;;;;;;;0.00;0.00;;;;;;;;;;5049315;28;20018;-72
2022/11/15 12:51:43;;;;;;;0.00;0.00;;;;;;;;;;5046534;28;20047;-74
2022/11/15 12:54:22;;;;;;;0.00;0.00;;;;;;;;;;5049285;28;20028;-71
2022/11/15 12:57:03;;;;;;;0.00;0.00;;;;;;;;;;5042772;28;20037;-74
2022/11/15 13:00:01;;;;;;;0.00;0.00;;;;;;;;;;5047073;28;20411;-73
2022/11/15 13:02:27;;;;;;;0.00;0.00;;;;;;;;;;5030687;28;20098;-72
2022/11/15 13:04:55;;;;;;;0.00;0.00;;;;;;;;;;5045627;28;20036;-73
2022/11/15 13:07:40;;;;;;;0.00;0.00;;;;;;;;;;5044436;28;20463;-73
2022/11/15 13:10:12;;;;;;;0.00;0.00;;;;;;;;;;5042213;28;20040;-73
2022/11/15 13:12:45;;;;;;;0.00;0.00;;;;;;;;;;5052840;28;20029;-74
2022/11/15 13:15:18;;;;;;;0.00;0.00;;;;;;;;;;5051008;28;20029;-72
2022/11/15 13:17:47;;;;;;;0.00;0.00;;;;;;;;;;5042995;28;20029;-73
2022/11/15 13:20:16;;;;;;;0.00;0.00;;;;;;;;;;5053993;28;20028;-73
2022/11/15 13:23:01;;;;;;;0.00;0.00;;;;;;;;;;5051603;28;20052;-74
2022/11/15 13:25:28;;;;;;;0.00;0.00;;;;;;;;;;5052621;28;20041;-73
2022/11/15 13:27:57;;;;;;;0.00;0.00;;;;;;;;;;5041230;28;20341;-73
2022/11/15 13:30:24;;;;;;;0.00;0.00;;;;;;;;;;5041123;28;20025;-74
2022/11/15 13:32:52;;;;;;;0.00;0.00;;;;;;;;;;5042169;28;20026;-72
2022/11/15 13:35:21;;;;;;;0.00;0.00;;;;;;;;;;5047443;28;20506;-72
2022/11/15 13:37:47;;;;;;;0.00;0.00;;;;;;;;;;5044853;28;20029;-73
2022/11/15 13:40:21;;;;;;;0.00;0.00;;;;;;;;;;5050546;28;20035;-72
2022/11/15 13:42:47;;;;;;;0.00;0.00;;;;;;;;;;5053081;28;20075;-72
2022/11/15 13:45:15;;;;;;;0.00;0.00;;;;;;;;;;5035994;28;20052;-72
2022/11/15 13:47:41;;;;;;;0.00;0.00;;;;;;;;;;5037003;28;20017;-72
2022/11/15 13:50:12;;;;;;;0.00;0.00;;;;;;;;;;5038199;28;20070;-73
2022/11/15 13:52:40;;;;;;;0.00;0.00;;;;;;;;;;5043316;28;20491;-72
2022/11/15 13:55:23;;;;;;;0.00;0.00;;;;;;;;;;5040662;28;20021;-72
2022/11/15 13:57:52;;;;;;;0.00;0.00;;;;;;;;;;5040597;28;20099;-72
2022/11/15 14:00:37;;;;;;;0.00;0.00;;;;;;;;;;5047591;28;20028;-73
2022/11/15 14:03:08;;;;;;;0.00;0.00;;;;;;;;;;5054099;28;20021;-72
2022/11/15 14:05:35;;;;;;;0.00;0.00;;;;;;;;;;5047683;28;20044;-71
2022/11/15 14:08:13;;;;;;;0.00;0.00;;;;;;;;;;5049168;28;20017;-73
2022/11/15 14:10:40;;;;;;;0.00;0.00;;;;;;;;;;5046896;28;20519;-73
2022/11/15 14:13:26;;;;;;;0.00;0.00;;;;;;;;;;5047275;28;20236;-72
2022/11/15 14:15:52;;;;;;;0.00;0.00;;;;;;;;;;5050534;28;20335;-73
2022/11/15 14:18:37;;;;;;;0.00;0.00;;;;;;;;;;5045623;28;20764;-72
2022/11/15 14:21:08;;;;;;;0.00;0.00;;;;;;;;;;5046110;28;20067;-73
2022/11/15 14:23:34;;;;;;;0.00;0.00;;;;;;;;;;5050066;28;20082;-72
2022/11/15 14:26:01;;;;;;;0.00;0.00;;;;;;;;;;5045407;28;20029;-72
2022/11/15 14:28:27;;;;;;;0.00;0.00;;;;;;;;;;5051075;28;20024;-72
2022/11/15 14:30:55;;;;;;;0.00;0.00;;;;;;;;;;5052115;28;20367;-71
2022/11/15 14:33:28;;;;;;;0.00;0.00;;;;;;;;;;5044072;28;20028;-72
2022/11/15 14:35:55;;;;;;;0.00;0.00;;;;;;;;;;5051407;28;20155;-72
2022/11/15 14:38:22;;;;;;;0.00;0.00;;;;;;;;;;5052399;28;20116;-72
2022/11/15 14:40:48;;;;;;;0.00;0.00;;;;;;;;;;5051345;28;20025;-72
2022/11/15 14:43:15;;;;;;;0.00;0.00;;;;;;;;;;5051899;28;20028;-72
2022/11/15 14:45:41;;;;;;;0.00;0.00;;;;;;;;;;5043574;28;20108;-72
2022/11/15 14:48:08;;;;;;;0.00;0.00;;;;;;;;;;5029316;28;20045;-73
2022/11/15 14:50:35;;;;;;;0.00;0.00;;;;;;;;;;5030425;28;20064;-72
2022/11/15 14:53:01;;;;;;;0.00;0.00;;;;;;;;;;5028685;28;20032;-73
2022/11/15 14:55:29;;;;;;;0.00;0.00;;;;;;;;;;5031867;28;20079;-72
2022/11/15 14:57:56;;;;;;;0.00;0.00;;;;;;;;;;5028314;28;20484;-73
2022/11/15 15:00:22;;;;;;;0.00;0.00;;;;;;;;;;5027616;28;20087;-73
2022/11/15 15:02:49;;;;;;;0.00;0.00;;;;;;;;;;5027276;28;20534;-73
2022/11/15 15:05:19;;;;;;;0.00;0.00;;;;;;;;;;5031025;28;20034;-72